Time;durP1;ratioP1;P1;durP2;ratioP2;P2;SDS_P1;SDS_P2;PMS_P1;PMS_P2;Temp;Humidity;BMP_temperature;BMP_pressure;BME280_temperature;BME280_humidity;BME280_pressure;Samples;Min_cycle;Max_cycle;Signal;HPM_P1;HPM_P2
2022/06/22 00:00:31;;;;;;;9.95;8.93;;;;;;;;;;5029039;28;20340;-73
2022/06/22 00:02:58;;;;;;;9.20;8.30;;;;;;;;;;5043647;28;20234;-75
2022/06/22 00:05:32;;;;;;;9.77;8.77;;;;;;;;;;5067613;28;20267;-73
2022/06/22 00:08:00;;;;;;;12.55;9.05;;;;;;;;;;5069441;28;20232;-73
2022/06/22 00:10:32;;;;;;;10.25;8.40;;;;;;;;;;5059556;28;20198;-72
2022/06/22 00:13:00;;;;;;;12.48;9.02;;;;;;;;;;5049461;28;20254;-74
2022/06/22 00:15:39;;;;;;;9.40;8.50;;;;;;;;;;5049693;28;20210;-74
2022/06/22 00:18:28;;;;;;;9.65;8.77;;;;;;;;;;5064153;28;20202;-73
2022/06/22 00:21:01;;;;;;;10.13;9.05;;;;;;;;;;5069893;28;20315;-72
2022/06/22 00:23:31;;;;;;;11.07;9.00;;;;;;;;;;5069215;28;20224;-73
2022/06/22 00:26:08;;;;;;;9.55;8.50;;;;;;;;;;5063479;28;20214;-72
2022/06/22 00:28:51;;;;;;;8.93;8.02;;;;;;;;;;5031714;28;20627;-73
2022/06/22 00:31:35;;;;;;;10.57;8.65;;;;;;;;;;5049093;28;20226;-72
2022/06/22 00:34:11;;;;;;;9.88;8.75;;;;;;;;;;5055615;28;20240;-73
2022/06/22 00:36:41;;;;;;;11.25;10.23;;;;;;;;;;5069429;28;20205;-73
2022/06/22 00:39:21;;;;;;;12.25;9.98;;;;;;;;;;5069326;28;20546;-73
2022/06/22 00:41:52;;;;;;;9.70;8.80;;;;;;;;;;5068677;28;20209;-73
2022/06/22 00:44:20;;;;;;;9.50;8.48;;;;;;;;;;5069096;28;20302;-74
2022/06/22 00:46:56;;;;;;;9.50;8.60;;;;;;;;;;5068954;28;20243;-74
2022/06/22 00:49:23;;;;;;;11.77;9.68;;;;;;;;;;5051842;28;20274;-74
2022/06/22 00:51:51;;;;;;;9.48;8.57;;;;;;;;;;5049037;28;20738;-74
2022/06/22 00:54:24;;;;;;;9.50;8.50;;;;;;;;;;5064229;28;20221;-73
2022/06/22 00:56:55;;;;;;;10.18;9.18;;;;;;;;;;5069158;28;20331;-74
2022/06/22 00:59:22;;;;;;;11.07;8.98;;;;;;;;;;5059189;28;20242;-74
2022/06/22 01:02:01;;;;;;;9.93;9.07;;;;;;;;;;5064042;28;20645;-74
2022/06/22 01:04:30;;;;;;;10.38;9.35;;;;;;;;;;5048424;28;20253;-74
2022/06/22 01:07:12;;;;;;;10.98;9.88;;;;;;;;;;5030763;28;20209;-73
2022/06/22 01:09:55;;;;;;;8.95;8.15;;;;;;;;;;5048306;28;20210;-72
2022/06/22 01:12:42;;;;;;;9.43;8.57;;;;;;;;;;5047986;28;20226;-74
2022/06/22 01:15:24;;;;;;;9.43;8.55;;;;;;;;;;5048370;28;20198;-73
2022/06/22 01:18:10;;;;;;;9.48;8.57;;;;;;;;;;5048008;28;20202;-73
2022/06/22 01:20:53;;;;;;;9.75;8.63;;;;;;;;;;5059576;28;20229;-73
2022/06/22 01:23:20;;;;;;;10.43;8.93;;;;;;;;;;5067540;28;20301;-72
2022/06/22 01:25:51;;;;;;;10.18;9.00;;;;;;;;;;5068136;28;20271;-72
2022/06/22 01:28:18;;;;;;;10.90;8.95;;;;;;;;;;5068535;28;20240;-73
2022/06/22 01:30:51;;;;;;;10.60;9.68;;;;;;;;;;5067108;28;20201;-73
2022/06/22 01:33:23;;;;;;;10.73;9.52;;;;;;;;;;5030710;28;20783;-72
2022/06/22 01:35:56;;;;;;;12.05;9.23;;;;;;;;;;5047972;28;20206;-72
2022/06/22 01:38:25;;;;;;;10.25;9.20;;;;;;;;;;5048621;28;20359;-72
2022/06/22 01:40:59;;;;;;;9.98;8.85;;;;;;;;;;5048012;28;20202;-73
2022/06/22 01:43:34;;;;;;;10.45;9.25;;;;;;;;;;5030522;28;20264;-73
2022/06/22 01:46:20;;;;;;;10.40;9.30;;;;;;;;;;5047917;28;20221;-72
2022/06/22 01:48:52;;;;;;;10.52;9.52;;;;;;;;;;5047688;28;20280;-73
2022/06/22 01:51:22;;;;;;;13.07;9.75;;;;;;;;;;5047805;28;20222;-73
2022/06/22 01:53:53;;;;;;;10.93;9.85;;;;;;;;;;5047537;28;20649;-73
2022/06/22 01:56:34;;;;;;;10.27;9.48;;;;;;;;;;5047451;28;20206;-74
2022/06/22 01:59:34;;;;;;;11.27;10.13;;;;;;;;;;5047784;28;20739;-73
2022/06/22 02:02:13;;;;;;;11.82;10.63;;;;;;;;;;4993634;28;20823;-73
2022/06/22 02:04:59;;;;;;;11.60;9.95;;;;;;;;;;5047888;28;20244;-73
2022/06/22 02:07:45;;;;;;;11.35;10.25;;;;;;;;;;5047949;28;20252;-73
2022/06/22 02:10:23;;;;;;;12.13;10.93;;;;;;;;;;5047779;28;20186;-74
2022/06/22 02:12:57;;;;;;;11.65;10.60;;;;;;;;;;5052819;28;20232;-73
2022/06/22 02:15:27;;;;;;;12.18;10.98;;;;;;;;;;5068349;28;20201;-73
2022/06/22 02:17:55;;;;;;;15.25;10.90;;;;;;;;;;5067984;28;20192;-73
2022/06/22 02:20:28;;;;;;;12.65;10.02;;;;;;;;;;5067447;28;20229;-74
2022/06/22 02:23:15;;;;;;;12.10;10.85;;;;;;;;;;5052585;28;20753;-71
2022/06/22 02:25:47;;;;;;;13.35;12.05;;;;;;;;;;5045301;28;20205;-74
2022/06/22 02:28:15;;;;;;;12.15;11.07;;;;;;;;;;5071701;28;20250;-73
2022/06/22 02:30:43;;;;;;;11.55;10.45;;;;;;;;;;5071565;28;20201;-73
2022/06/22 02:33:11;;;;;;;11.10;10.15;;;;;;;;;;5071237;28;20228;-74
2022/06/22 02:35:40;;;;;;;11.00;9.95;;;;;;;;;;5062893;28;20198;-73
2022/06/22 02:38:10;;;;;;;11.23;9.95;;;;;;;;;;5053584;28;20248;-74
2022/06/22 02:46:15;;;;;;;12.90;11.60;;;;;;;;;;5070558;28;20213;-74
2022/06/22 02:48:44;;;;;;;11.73;10.63;;;;;;;;;;5053415;28;20202;-74
2022/06/22 02:51:12;;;;;;;11.77;10.60;;;;;;;;;;5051333;28;20884;-73
2022/06/22 02:53:40;;;;;;;12.57;11.38;;;;;;;;;;5050991;28;20718;-73
2022/06/22 02:56:13;;;;;;;12.48;11.07;;;;;;;;;;5051385;28;20241;-74
2022/06/22 02:58:40;;;;;;;12.82;11.25;;;;;;;;;;5050758;28;20229;-73
2022/06/22 03:01:12;;;;;;;16.13;12.40;;;;;;;;;;5051454;28;20229;-73
2022/06/22 03:03:41;;;;;;;13.45;11.73;;;;;;;;;;5050780;28;20280;-73
2022/06/22 03:06:10;;;;;;;13.23;11.80;;;;;;;;;;5051956;28;20256;-73
2022/06/22 03:08:37;;;;;;;13.18;11.90;;;;;;;;;;5033360;28;20248;-72
2022/06/22 03:11:06;;;;;;;13.73;12.32;;;;;;;;;;5051057;28;20741;-72
2022/06/22 03:13:49;;;;;;;13.10;11.80;;;;;;;;;;5050485;28;20368;-72
2022/06/22 03:16:27;;;;;;;13.50;12.10;;;;;;;;;;5050422;28;20208;-72
2022/06/22 03:18:57;;;;;;;14.15;12.30;;;;;;;;;;5050569;28;20621;-73
2022/06/22 03:21:24;;;;;;;13.55;12.15;;;;;;;;;;5053921;28;20233;-71
2022/06/22 03:23:59;;;;;;;12.93;11.73;;;;;;;;;;5070493;28;20298;-74
2022/06/22 03:26:37;;;;;;;14.90;12.48;;;;;;;;;;5070703;28;20215;-72
2022/06/22 03:29:25;;;;;;;13.18;11.93;;;;;;;;;;5070209;28;20208;-72
2022/06/22 03:32:16;;;;;;;13.13;11.88;;;;;;;;;;5070239;28;20260;-73
2022/06/22 03:34:46;;;;;;;12.93;11.43;;;;;;;;;;5059562;28;20692;-73
2022/06/22 03:37:17;;;;;;;16.48;11.18;;;;;;;;;;5050387;28;20244;-73
2022/06/22 03:39:48;;;;;;;11.77;10.20;;;;;;;;;;5050357;28;20587;-73
2022/06/22 03:42:21;;;;;;;31.67;27.38;;;;;;;;;;5050393;28;20636;-73
2022/06/22 03:44:55;;;;;;;14.10;11.30;;;;;;;;;;5049713;28;20209;-72
2022/06/22 03:47:29;;;;;;;14.73;10.35;;;;;;;;;;5049995;28;20202;-72
2022/06/22 03:50:10;;;;;;;10.90;9.80;;;;;;;;;;5050292;28;20582;-75
2022/06/22 03:52:49;;;;;;;20.35;15.30;;;;;;;;;;5069002;28;20647;-74
2022/06/22 03:55:21;;;;;;;14.10;12.60;;;;;;;;;;5070217;28;20225;-72
2022/06/22 03:57:50;;;;;;;14.18;11.70;;;;;;;;;;5069225;28;20296;-72
2022/06/22 04:00:19;;;;;;;11.18;9.85;;;;;;;;;;5051901;28;20292;-73
2022/06/22 04:02:46;;;;;;;11.20;10.13;;;;;;;;;;5069465;28;20267;-73
2022/06/22 04:05:16;;;;;;;10.85;9.93;;;;;;;;;;5052112;28;20631;-73
2022/06/22 04:07:43;;;;;;;10.70;9.45;;;;;;;;;;5068940;28;20245;-73
2022/06/22 04:10:20;;;;;;;11.70;9.50;;;;;;;;;;5069482;28;20245;-73
2022/06/22 04:12:49;;;;;;;11.32;9.27;;;;;;;;;;5064371;28;20267;-73
2022/06/22 04:15:24;;;;;;;12.75;9.85;;;;;;;;;;5049599;28;20198;-73
2022/06/22 04:17:58;;;;;;;12.50;10.07;;;;;;;;;;5049513;28;20209;-73
2022/06/22 04:20:25;;;;;;;11.23;10.23;;;;;;;;;;5049667;28;20229;-73
2022/06/22 04:22:54;;;;;;;11.55;10.30;;;;;;;;;;5049697;28;20262;-73
2022/06/22 04:25:31;;;;;;;10.63;9.57;;;;;;;;;;5048924;28;20807;-73
2022/06/22 04:28:02;;;;;;;12.10;10.57;;;;;;;;;;5049339;28;20287;-72
2022/06/22 04:30:31;;;;;;;11.07;10.07;;;;;;;;;;5047217;28;20316;-74
2022/06/22 04:33:08;;;;;;;12.05;10.43;;;;;;;;;;5046649;28;20288;-73
2022/06/22 04:35:45;;;;;;;11.82;10.63;;;;;;;;;;5048338;28;20624;-73
2022/06/22 04:38:33;;;;;;;12.80;10.60;;;;;;;;;;5048817;28;20241;-72
2022/06/22 04:41:00;;;;;;;12.73;10.52;;;;;;;;;;5028563;28;20727;-72
2022/06/22 04:43:28;;;;;;;11.75;10.38;;;;;;;;;;5047020;28;20249;-73
2022/06/22 04:45:56;;;;;;;12.50;10.95;;;;;;;;;;5047084;28;20663;-73
2022/06/22 04:48:31;;;;;;;10.27;9.38;;;;;;;;;;5048291;28;20206;-72
2022/06/22 04:51:00;;;;;;;13.02;9.55;;;;;;;;;;5049026;28;20233;-72
2022/06/22 04:53:34;;;;;;;10.40;9.40;;;;;;;;;;5048027;28;20276;-73
2022/06/22 04:56:10;;;;;;;11.90;9.85;;;;;;;;;;5047429;28;20234;-73
2022/06/22 04:58:42;;;;;;;11.85;9.95;;;;;;;;;;5047685;28;20225;-73
2022/06/22 05:01:23;;;;;;;15.32;9.93;;;;;;;;;;5031111;28;20257;-72
2022/06/22 05:03:53;;;;;;;12.13;10.32;;;;;;;;;;5048171;28;20600;-72
2022/06/22 05:06:27;;;;;;;10.20;9.20;;;;;;;;;;5048644;28;20694;-73
2022/06/22 05:09:00;;;;;;;10.77;9.68;;;;;;;;;;5057700;28;20189;-74
2022/06/22 05:11:31;;;;;;;10.55;9.60;;;;;;;;;;5059645;28;20624;-74
2022/06/22 05:13:59;;;;;;;10.98;9.93;;;;;;;;;;5069153;28;20272;-74
2022/06/22 05:16:28;;;;;;;10.60;9.25;;;;;;;;;;5032775;28;20194;-74
2022/06/22 05:18:56;;;;;;;12.20;10.07;;;;;;;;;;5049096;28;20198;-74
2022/06/22 05:21:45;;;;;;;10.98;9.57;;;;;;;;;;5049081;28;20252;-75
2022/06/22 05:24:15;;;;;;;11.40;9.68;;;;;;;;;;5049080;28;20258;-74
2022/06/22 05:26:43;;;;;;;11.88;10.75;;;;;;;;;;5048955;28;20213;-75
2022/06/22 05:29:15;;;;;;;10.13;8.57;;;;;;;;;;5048788;28;20256;-74
2022/06/22 05:31:48;;;;;;;10.25;8.88;;;;;;;;;;5049017;28;20698;-74
2022/06/22 05:34:20;;;;;;;9.50;8.43;;;;;;;;;;5030283;28;20234;-73
2022/06/22 05:36:50;;;;;;;12.75;8.63;;;;;;;;;;5048407;28;20194;-73
2022/06/22 05:39:17;;;;;;;10.65;8.95;;;;;;;;;;5030829;28;20202;-72
2022/06/22 05:41:46;;;;;;;8.80;7.88;;;;;;;;;;5059845;28;20562;-73
2022/06/22 05:44:16;;;;;;;11.18;7.45;;;;;;;;;;5042890;28;20229;-74
2022/06/22 05:46:50;;;;;;;7.85;6.95;;;;;;;;;;5048346;28;20210;-73
2022/06/22 05:49:18;;;;;;;9.82;6.90;;;;;;;;;;5055846;28;20205;-74
2022/06/22 05:51:54;;;;;;;7.25;5.97;;;;;;;;;;5068872;28;20244;-74
2022/06/22 05:54:40;;;;;;;8.10;6.20;;;;;;;;;;5068591;28;20253;-75
2022/06/22 05:57:15;;;;;;;9.40;5.55;;;;;;;;;;5052282;28;20205;-75
2022/06/22 05:59:54;;;;;;;7.45;5.45;;;;;;;;;;5063581;28;20224;-73
2022/06/22 06:02:56;;;;;;;7.55;4.85;;;;;;;;;;5052287;28;20190;-74
2022/06/22 06:05:34;;;;;;;11.00;4.93;;;;;;;;;;4987929;28;20212;-74
2022/06/22 06:08:03;;;;;;;7.07;5.03;;;;;;;;;;5060541;28;20244;-75
2022/06/22 06:10:32;;;;;;;10.35;5.15;;;;;;;;;;5068534;28;20201;-74
2022/06/22 06:13:04;;;;;;;6.65;5.43;;;;;;;;;;5069567;28;20255;-74
2022/06/22 06:15:35;;;;;;;8.88;5.13;;;;;;;;;;5069611;28;20630;-75
2022/06/22 06:18:03;;;;;;;8.48;5.28;;;;;;;;;;5069578;28;20213;-73
2022/06/22 06:20:35;;;;;;;9.15;5.47;;;;;;;;;;5068947;28;20248;-73
2022/06/22 06:23:11;;;;;;;7.70;5.78;;;;;;;;;;5067530;28;20261;-73
2022/06/22 06:28:39;;;;;;;7.85;5.00;;;;;;;;;;5067713;28;20209;-75
2022/06/22 06:31:12;;;;;;;6.35;3.97;;;;;;;;;;5068105;28;20193;-74
2022/06/22 06:33:40;;;;;;;8.02;4.53;;;;;;;;;;5067368;28;20668;-72
2022/06/22 06:36:16;;;;;;;7.43;4.22;;;;;;;;;;5068039;28;20248;-73
2022/06/22 06:38:48;;;;;;;13.27;7.22;;;;;;;;;;5068660;28;20773;-73
2022/06/22 06:41:34;;;;;;;11.30;5.35;;;;;;;;;;5068412;28;20248;-74
2022/06/22 06:44:03;;;;;;;6.93;4.13;;;;;;;;;;5050139;28;20269;-74
2022/06/22 06:46:39;;;;;;;8.75;4.30;;;;;;;;;;5047291;28;20252;-73
2022/06/22 06:49:26;;;;;;;8.50;4.18;;;;;;;;;;5047641;28;20191;-73
2022/06/22 06:51:59;;;;;;;8.25;3.90;;;;;;;;;;5030713;28;20268;-73
2022/06/22 06:54:31;;;;;;;9.88;4.00;;;;;;;;;;5047394;28;20311;-73
2022/06/22 06:57:01;;;;;;;9.20;3.83;;;;;;;;;;5047959;28;20556;-74
2022/06/22 06:59:30;;;;;;;7.93;3.92;;;;;;;;;;5047190;28;20609;-74
2022/06/22 07:02:05;;;;;;;10.43;3.88;;;;;;;;;;5047537;28;20198;-74
2022/06/22 07:04:35;;;;;;;10.70;3.60;;;;;;;;;;5047820;28;20707;-74
2022/06/22 07:07:14;;;;;;;8.80;3.88;;;;;;;;;;5049132;28;20260;-74
2022/06/22 07:09:42;;;;;;;8.75;3.60;;;;;;;;;;5051644;28;20568;-74
2022/06/22 07:12:25;;;;;;;10.52;4.18;;;;;;;;;;5050779;28;20245;-73
2022/06/22 07:14:53;;;;;;;11.15;3.90;;;;;;;;;;5050250;28;20186;-75
2022/06/22 07:17:22;;;;;;;8.93;3.63;;;;;;;;;;5051863;28;20259;-72
2022/06/22 07:20:00;;;;;;;9.88;3.95;;;;;;;;;;5051765;28;20768;-74
2022/06/22 07:22:40;;;;;;;7.05;3.70;;;;;;;;;;5049685;28;20222;-74
2022/06/22 07:25:25;;;;;;;10.98;3.80;;;;;;;;;;5048952;28;20674;-73
2022/06/22 07:28:05;;;;;;;11.27;6.03;;;;;;;;;;5049202;28;20237;-73
2022/06/22 07:30:54;;;;;;;8.32;3.80;;;;;;;;;;5047867;28;20263;-73
2022/06/22 07:33:25;;;;;;;9.55;3.97;;;;;;;;;;5050096;28;20226;-73
2022/06/22 07:35:52;;;;;;;10.45;4.40;;;;;;;;;;5048690;28;20254;-73
2022/06/22 07:38:37;;;;;;;7.20;4.03;;;;;;;;;;5050871;28;20826;-73
2022/06/22 07:41:20;;;;;;;7.15;5.00;;;;;;;;;;5031760;28;20255;-75
2022/06/22 07:43:49;;;;;;;10.25;5.90;;;;;;;;;;5048885;28;20272;-72
2022/06/22 07:46:24;;;;;;;12.50;8.63;;;;;;;;;;5051267;28;20213;-75
2022/06/22 07:48:55;;;;;;;9.30;8.32;;;;;;;;;;5034092;28;20214;-74
2022/06/22 07:51:24;;;;;;;11.02;8.48;;;;;;;;;;5051413;28;20207;-75
2022/06/22 07:53:54;;;;;;;8.88;7.50;;;;;;;;;;5051401;28;20269;-74
2022/06/22 07:56:28;;;;;;;9.30;7.40;;;;;;;;;;5033187;28;20206;-75
2022/06/22 07:59:01;;;;;;;9.18;8.27;;;;;;;;;;5050204;28;20233;-74
2022/06/22 08:01:30;;;;;;;12.05;7.90;;;;;;;;;;5050113;28;20252;-72
2022/06/22 08:04:16;;;;;;;8.93;7.40;;;;;;;;;;5030274;28;20276;-72
2022/06/22 08:06:47;;;;;;;13.07;7.57;;;;;;;;;;5048335;28;20252;-73
2022/06/22 08:09:18;;;;;;;8.45;7.13;;;;;;;;;;5049258;28;20397;-75
2022/06/22 08:12:05;;;;;;;10.02;6.97;;;;;;;;;;5031195;28;20202;-73
2022/06/22 08:14:43;;;;;;;8.68;7.22;;;;;;;;;;5036011;28;20729;-74
2022/06/22 08:17:13;;;;;;;10.00;6.80;;;;;;;;;;5049139;28;20635;-74
2022/06/22 08:19:41;;;;;;;8.95;7.40;;;;;;;;;;5049635;28;20275;-73
2022/06/22 08:22:10;;;;;;;10.82;7.90;;;;;;;;;;5049691;28;20685;-74
2022/06/22 08:24:40;;;;;;;9.30;7.32;;;;;;;;;;5059624;28;20245;-74
2022/06/22 08:27:09;;;;;;;8.80;6.95;;;;;;;;;;5068212;28;20260;-73
2022/06/22 08:29:37;;;;;;;8.07;6.97;;;;;;;;;;5069144;28;20855;-74
2022/06/22 08:32:04;;;;;;;9.88;7.32;;;;;;;;;;5068627;28;20233;-75
2022/06/22 08:34:55;;;;;;;12.63;9.90;;;;;;;;;;5069100;28;20229;-73
2022/06/22 08:37:32;;;;;;;11.88;7.55;;;;;;;;;;5050719;28;20259;-73
2022/06/22 08:40:03;;;;;;;11.50;7.63;;;;;;;;;;5068079;28;20231;-72
2022/06/22 08:42:42;;;;;;;11.52;9.63;;;;;;;;;;5068117;28;20241;-73
2022/06/22 08:45:28;;;;;;;15.13;9.55;;;;;;;;;;5068900;28;20205;-75
2022/06/22 08:48:14;;;;;;;10.90;8.73;;;;;;;;;;5070229;28;20296;-75
2022/06/22 08:50:50;;;;;;;12.80;7.15;;;;;;;;;;5069546;28;20202;-75
2022/06/22 08:53:37;;;;;;;8.90;7.30;;;;;;;;;;5070050;28;20232;-75
2022/06/22 08:56:04;;;;;;;12.52;8.82;;;;;;;;;;5069959;28;20576;-75
2022/06/22 08:58:37;;;;;;;8.45;7.57;;;;;;;;;;5068857;28;20270;-75
2022/06/22 09:01:14;;;;;;;11.43;6.20;;;;;;;;;;5049424;28;20236;-73
2022/06/22 09:03:51;;;;;;;13.90;8.73;;;;;;;;;;5068313;28;20225;-73
2022/06/22 09:06:24;;;;;;;7.35;6.28;;;;;;;;;;5069155;28;20721;-73
2022/06/22 09:09:03;;;;;;;6.88;5.85;;;;;;;;;;5068521;28;20222;-74
2022/06/22 09:11:31;;;;;;;7.13;5.53;;;;;;;;;;5069369;28;20228;-73
2022/06/22 09:13:58;;;;;;;10.30;5.22;;;;;;;;;;5068274;28;20273;-74
2022/06/22 09:16:44;;;;;;;6.57;4.50;;;;;;;;;;5069068;28;20240;-73
2022/06/22 09:19:14;;;;;;;6.13;4.18;;;;;;;;;;5068254;28;20228;-72
2022/06/22 09:21:50;;;;;;;6.82;4.70;;;;;;;;;;5069132;28;20229;-72
2022/06/22 09:24:36;;;;;;;5.45;4.70;;;;;;;;;;5068663;28;20628;-74
2022/06/22 09:27:12;;;;;;;7.05;4.63;;;;;;;;;;5068825;28;20252;-73
2022/06/22 09:29:42;;;;;;;5.65;4.20;;;;;;;;;;5050446;28;20212;-73
2022/06/22 09:32:39;;;;;;;7.00;5.00;;;;;;;;;;5068148;28;20760;-74
2022/06/22 09:35:27;;;;;;;8.40;4.78;;;;;;;;;;5053460;28;20303;-74
2022/06/22 09:38:13;;;;;;;6.50;4.45;;;;;;;;;;5000875;28;20279;-76
2022/06/22 09:40:41;;;;;;;6.88;4.90;;;;;;;;;;5069509;28;20220;-74
2022/06/22 09:43:11;;;;;;;9.02;5.03;;;;;;;;;;5069686;28;20275;-74
2022/06/22 09:45:38;;;;;;;7.00;5.00;;;;;;;;;;5060577;28;20229;-75
2022/06/22 09:48:08;;;;;;;8.48;4.93;;;;;;;;;;5070176;28;20208;-74
2022/06/22 09:51:00;;;;;;;7.63;5.05;;;;;;;;;;5070349;28;20193;-76
2022/06/22 09:53:57;;;;;;;7.40;5.40;;;;;;;;;;5070274;28;20229;-73
2022/06/22 09:56:32;;;;;;;8.00;5.13;;;;;;;;;;5063232;28;20209;-75
2022/06/22 09:59:22;;;;;;;8.38;5.95;;;;;;;;;;5081855;28;20403;-75
2022/06/22 10:01:52;;;;;;;7.03;4.95;;;;;;;;;;5065061;28;20237;-75
2022/06/22 10:04:32;;;;;;;9.82;5.15;;;;;;;;;;5070132;28;20233;-74
2022/06/22 10:07:15;;;;;;;5.65;4.90;;;;;;;;;;5070440;28;20300;-74
2022/06/22 10:10:15;;;;;;;9.32;5.35;;;;;;;;;;5070153;28;20202;-75
2022/06/22 10:12:45;;;;;;;9.15;5.20;;;;;;;;;;5025302;28;20270;-75
2022/06/22 10:15:23;;;;;;;9.35;4.70;;;;;;;;;;5057408;28;20248;-74
2022/06/22 10:17:50;;;;;;;8.93;5.13;;;;;;;;;;5057584;28;20221;-74
2022/06/22 10:20:47;;;;;;;10.50;5.70;;;;;;;;;;5060880;28;20656;-75
2022/06/22 10:23:31;;;;;;;11.77;5.90;;;;;;;;;;5063859;28;20676;-76
2022/06/22 10:26:05;;;;;;;10.80;5.85;;;;;;;;;;5057172;28;20245;-73
2022/06/22 10:28:42;;;;;;;12.70;5.93;;;;;;;;;;5068587;28;20205;-75
2022/06/22 10:31:15;;;;;;;12.82;5.45;;;;;;;;;;5070298;28;20205;-75
2022/06/22 10:34:01;;;;;;;9.70;4.88;;;;;;;;;;5063547;28;20313;-75
2022/06/22 10:36:43;;;;;;;8.52;4.50;;;;;;;;;;5064048;28;20221;-75
2022/06/22 10:39:30;;;;;;;8.13;4.13;;;;;;;;;;5065001;28;20284;-75
2022/06/22 10:45:11;;;;;;;10.40;3.95;;;;;;;;;;5055438;28;20206;-73
2022/06/22 10:47:51;;;;;;;12.90;3.97;;;;;;;;;;5058471;28;20213;-75
2022/06/22 10:50:18;;;;;;;12.02;4.40;;;;;;;;;;5059014;28;20319;-74
2022/06/22 10:53:22;;;;;;;13.20;4.20;;;;;;;;;;5058915;28;20887;-75
2022/06/22 10:55:59;;;;;;;9.32;3.55;;;;;;;;;;5067345;28;20210;-74
2022/06/22 10:58:41;;;;;;;7.20;3.50;;;;;;;;;;5061903;28;20255;-76
2022/06/22 11:01:24;;;;;;;10.38;4.00;;;;;;;;;;5040643;28;20660;-75
2022/06/22 11:03:51;;;;;;;7.10;3.20;;;;;;;;;;5061373;28;20221;-76
2022/06/22 11:06:37;;;;;;;8.00;3.45;;;;;;;;;;5065888;28;20332;-75
2022/06/22 11:09:14;;;;;;;10.57;4.13;;;;;;;;;;5062600;28;20290;-75
2022/06/22 11:11:49;;;;;;;9.63;3.70;;;;;;;;;;5059038;28;20233;-76
2022/06/22 11:14:16;;;;;;;7.47;3.13;;;;;;;;;;5041913;28;20261;-73
2022/06/22 11:16:52;;;;;;;8.23;3.67;;;;;;;;;;5062321;28;20313;-75
2022/06/22 11:19:29;;;;;;;8.55;3.53;;;;;;;;;;5062534;28;20259;-73
2022/06/22 11:22:08;;;;;;;6.00;3.33;;;;;;;;;;5061373;28;20206;-76
2022/06/22 11:24:47;;;;;;;7.60;3.60;;;;;;;;;;5064932;28;20229;-75
2022/06/22 11:33:20;;;;;;;6.50;3.53;;;;;;;;;;5061976;28;20246;-75
2022/06/22 11:36:06;;;;;;;9.93;3.58;;;;;;;;;;5062966;28;20656;-75
2022/06/22 11:38:36;;;;;;;6.40;2.80;;;;;;;;;;5067144;28;20255;-74
2022/06/22 11:41:29;;;;;;;7.57;2.72;;;;;;;;;;5060954;28;20233;-74
2022/06/22 11:44:12;;;;;;;6.65;2.80;;;;;;;;;;5057115;28;20279;-74
2022/06/22 11:46:47;;;;;;;7.38;3.05;;;;;;;;;;5066405;28;20197;-75
2022/06/22 11:49:17;;;;;;;10.95;3.17;;;;;;;;;;5064386;28;20263;-74
2022/06/22 11:51:46;;;;;;;6.97;2.85;;;;;;;;;;5063151;28;20241;-74
2022/06/22 11:54:32;;;;;;;9.25;3.05;;;;;;;;;;5064742;28;20264;-74
2022/06/22 11:57:01;;;;;;;11.40;2.97;;;;;;;;;;5051561;28;20621;-75
2022/06/22 11:59:37;;;;;;;8.32;3.10;;;;;;;;;;5065744;28;20208;-74
2022/06/22 12:02:23;;;;;;;12.65;3.20;;;;;;;;;;5067105;28;20668;-74
2022/06/22 12:05:03;;;;;;;8.85;2.90;;;;;;;;;;5063762;28;20206;-74
2022/06/22 12:07:49;;;;;;;10.63;3.28;;;;;;;;;;5060264;28;20647;-74
2022/06/22 12:10:26;;;;;;;6.30;3.03;;;;;;;;;;5051456;28;20279;-75
2022/06/22 12:13:00;;;;;;;10.30;3.38;;;;;;;;;;5051372;28;20291;-74
2022/06/22 12:15:33;;;;;;;10.75;3.28;;;;;;;;;;5051312;28;20271;-74
2022/06/22 12:18:19;;;;;;;11.98;3.47;;;;;;;;;;5051119;28;20240;-74
2022/06/22 12:21:02;;;;;;;11.13;3.10;;;;;;;;;;5050213;28;20233;-74
2022/06/22 12:23:33;;;;;;;8.02;2.88;;;;;;;;;;5051465;28;20578;-74
2022/06/22 12:26:03;;;;;;;11.45;3.22;;;;;;;;;;5050543;28;20243;-75
2022/06/22 12:28:36;;;;;;;8.63;3.15;;;;;;;;;;5050004;28;20598;-74
2022/06/22 12:31:10;;;;;;;8.63;3.17;;;;;;;;;;5056782;28;20644;-74
2022/06/22 12:33:48;;;;;;;12.00;3.80;;;;;;;;;;5069408;28;20221;-73
2022/06/22 12:36:18;;;;;;;11.43;3.70;;;;;;;;;;5067700;28;20205;-74
2022/06/22 12:38:48;;;;;;;14.43;4.22;;;;;;;;;;5069575;28;20189;-73
2022/06/22 12:41:39;;;;;;;10.10;2.90;;;;;;;;;;5068376;28;20213;-73
2022/06/22 12:44:14;;;;;;;9.05;3.40;;;;;;;;;;5069157;28;20355;-73
2022/06/22 12:46:53;;;;;;;9.75;3.45;;;;;;;;;;5063064;28;20227;-74
2022/06/22 12:49:31;;;;;;;10.55;3.20;;;;;;;;;;5068091;28;20204;-74
2022/06/22 12:52:19;;;;;;;11.68;3.95;;;;;;;;;;5067975;28;20201;-75
2022/06/22 12:54:49;;;;;;;12.85;4.05;;;;;;;;;;5067850;28;20280;-74
2022/06/22 12:57:21;;;;;;;10.45;3.45;;;;;;;;;;5067155;28;20208;-74
2022/06/22 12:59:52;;;;;;;7.05;3.75;;;;;;;;;;5063670;28;20201;-74
2022/06/22 13:02:20;;;;;;;14.48;3.60;;;;;;;;;;5063722;28;20190;-74
2022/06/22 13:05:00;;;;;;;9.38;3.70;;;;;;;;;;5046922;28;20313;-73
2022/06/22 13:07:29;;;;;;;11.70;3.45;;;;;;;;;;5048179;28;20636;-74
2022/06/22 13:09:57;;;;;;;7.82;3.20;;;;;;;;;;5053535;28;20262;-73
2022/06/22 13:12:44;;;;;;;9.60;3.50;;;;;;;;;;5057704;28;20209;-73
2022/06/22 13:15:17;;;;;;;10.75;3.30;;;;;;;;;;5067233;28;20276;-73
2022/06/22 13:17:49;;;;;;;13.23;3.67;;;;;;;;;;5067366;28;20423;-73
2022/06/22 13:20:25;;;;;;;13.63;3.83;;;;;;;;;;5066543;28;20232;-75
2022/06/22 13:23:11;;;;;;;14.00;3.65;;;;;;;;;;5066794;28;20550;-76
2022/06/22 13:25:39;;;;;;;8.95;3.33;;;;;;;;;;5067672;28;20695;-74
2022/06/22 13:28:06;;;;;;;10.52;3.60;;;;;;;;;;5067411;28;20244;-73
2022/06/22 13:30:43;;;;;;;9.25;3.55;;;;;;;;;;5066766;28;20209;-73
2022/06/22 13:33:13;;;;;;;9.02;3.50;;;;;;;;;;5067402;28;20260;-74
2022/06/22 13:35:44;;;;;;;10.50;3.65;;;;;;;;;;5067050;28;20251;-73
2022/06/22 13:38:20;;;;;;;9.43;3.83;;;;;;;;;;5059965;28;20194;-74
2022/06/22 13:40:47;;;;;;;13.88;3.83;;;;;;;;;;5047686;28;20202;-74
2022/06/22 13:43:21;;;;;;;11.18;3.25;;;;;;;;;;5047739;28;20223;-73
2022/06/22 13:45:54;;;;;;;9.73;3.70;;;;;;;;;;5047705;28;20225;-74
2022/06/22 13:48:26;;;;;;;8.00;3.58;;;;;;;;;;5048588;28;20229;-72
2022/06/22 13:53:28;;;;;;;9.00;3.42;;;;;;;;;;5048746;28;20677;-75
2022/06/22 13:56:00;;;;;;;10.00;3.72;;;;;;;;;;5067856;28;20224;-74
2022/06/22 13:58:42;;;;;;;9.52;3.65;;;;;;;;;;5058259;28;20222;-75
2022/06/22 14:01:18;;;;;;;9.52;3.25;;;;;;;;;;5059695;28;20206;-73
2022/06/22 14:03:48;;;;;;;7.90;3.50;;;;;;;;;;5051305;28;20519;-73
2022/06/22 14:06:15;;;;;;;10.65;3.72;;;;;;;;;;5047914;28;20214;-72
2022/06/22 14:08:58;;;;;;;10.20;3.80;;;;;;;;;;5066703;28;20217;-73
2022/06/22 14:11:42;;;;;;;13.85;3.67;;;;;;;;;;5065928;28;20588;-74
2022/06/22 14:14:28;;;;;;;10.50;3.40;;;;;;;;;;5045151;28;20249;-72
2022/06/22 14:17:07;;;;;;;12.50;3.65;;;;;;;;;;5050921;28;20290;-73
2022/06/22 14:19:44;;;;;;;12.20;3.33;;;;;;;;;;5052595;28;20206;-74
2022/06/22 14:22:22;;;;;;;9.70;2.97;;;;;;;;;;5052176;28;20272;-73
2022/06/22 14:24:50;;;;;;;9.98;3.38;;;;;;;;;;5052000;28;20656;-73
2022/06/22 14:27:24;;;;;;;7.35;3.22;;;;;;;;;;5051607;28;20245;-73
2022/06/22 14:30:14;;;;;;;10.88;3.33;;;;;;;;;;5051345;28;20253;-74
2022/06/22 14:32:52;;;;;;;10.38;3.30;;;;;;;;;;5052279;28;20665;-74
2022/06/22 14:35:25;;;;;;;11.40;3.65;;;;;;;;;;5069614;28;20202;-74
2022/06/22 14:38:02;;;;;;;12.05;3.40;;;;;;;;;;5056443;28;20650;-74
2022/06/22 14:40:32;;;;;;;8.15;3.15;;;;;;;;;;5072112;28;20662;-74
2022/06/22 14:43:04;;;;;;;7.43;2.88;;;;;;;;;;5071951;28;20221;-74
2022/06/22 14:45:36;;;;;;;8.30;2.80;;;;;;;;;;5071924;28;20214;-75
2022/06/22 14:48:22;;;;;;;14.10;3.40;;;;;;;;;;5066024;28;20202;-74
2022/06/22 14:50:49;;;;;;;9.68;3.20;;;;;;;;;;5051417;28;20209;-74
2022/06/22 14:53:17;;;;;;;12.07;3.30;;;;;;;;;;5051419;28;20630;-74
2022/06/22 14:55:48;;;;;;;8.45;2.90;;;;;;;;;;5069560;28;20252;-74
2022/06/22 14:58:15;;;;;;;8.73;2.83;;;;;;;;;;5071354;28;20634;-74
2022/06/22 15:00:46;;;;;;;13.50;3.67;;;;;;;;;;5070574;28;20654;-74
2022/06/22 15:03:25;;;;;;;9.25;2.75;;;;;;;;;;5071261;28;20267;-74
2022/06/22 15:05:59;;;;;;;7.53;2.90;;;;;;;;;;5056817;28;20243;-74
2022/06/22 15:08:26;;;;;;;9.57;3.20;;;;;;;;;;5067923;28;20689;-74
2022/06/22 15:14:02;;;;;;;11.70;3.50;;;;;;;;;;5057089;28;20592;-74
2022/06/22 15:16:32;;;;;;;12.00;3.17;;;;;;;;;;5063891;28;20252;-75
2022/06/22 15:19:25;;;;;;;10.32;3.45;;;;;;;;;;5057974;28;20230;-74
2022/06/22 15:21:57;;;;;;;7.82;3.13;;;;;;;;;;5055025;28;20391;-74
2022/06/22 15:24:41;;;;;;;8.95;2.97;;;;;;;;;;5053568;28;20271;-73
2022/06/22 15:27:17;;;;;;;11.10;3.47;;;;;;;;;;5046913;28;20214;-74
2022/06/22 15:29:57;;;;;;;12.00;2.95;;;;;;;;;;5067293;28;20201;-74
2022/06/22 15:32:39;;;;;;;10.77;3.35;;;;;;;;;;5070697;28;20576;-74
2022/06/22 15:35:18;;;;;;;8.95;3.60;;;;;;;;;;5071917;28;20829;-74
2022/06/22 15:37:57;;;;;;;13.63;3.50;;;;;;;;;;5072796;28;20232;-73
2022/06/22 15:40:29;;;;;;;12.10;3.78;;;;;;;;;;5069226;28;20234;-74
2022/06/22 15:43:08;;;;;;;11.90;4.10;;;;;;;;;;5071112;28;20713;-74